Time;durP1;ratioP1;P1;durP2;ratioP2;P2;SDS_P1;SDS_P2;PMS_P1;PMS_P2;Temp;Humidity;BMP_temperature;BMP_pressure;BME280_temperature;BME280_humidity;BME280_pressure;Samples;Min_cycle;Max_cycle;Signal;HPM_P1;HPM_P2
2021/10/12 04:54:12;;;;;;;17.05;8.05;;;;;;;6.47;81.09;100115.53;5005159;28;106115;-70
2021/10/12 04:56:37;;;;;;;13.30;7.78;;;;;;;6.47;80.96;100107.59;5006126;28;105888;-71
2021/10/12 04:59:03;;;;;;;17.98;7.75;;;;;;;6.51;81.19;100103.66;5005153;28;105707;-71
2021/10/12 05:01:28;;;;;;;17.30;8.00;;;;;;;6.51;80.81;100114.25;5005050;28;105839;-71
2021/10/12 05:03:53;;;;;;;15.90;8.68;;;;;;;6.47;80.95;100103.13;5004990;28;106401;-70
2021/10/12 05:06:19;;;;;;;21.42;8.90;;;;;;;6.46;80.95;100095.31;5005519;28;106195;-72
2021/10/12 05:08:44;;;;;;;16.70;9.95;;;;;;;6.44;80.96;100101.59;5005188;28;105847;-71
2021/10/12 05:11:09;;;;;;;19.05;9.50;;;;;;;6.43;81.01;100099.91;5004783;28;106205;-71
2021/10/12 05:13:36;;;;;;;15.82;8.85;;;;;;;6.40;80.91;100100.22;5004269;28;106054;-71
2021/10/12 05:16:04;;;;;;;17.95;10.52;;;;;;;6.40;81.13;100094.09;5005587;28;105872;-70
2021/10/12 05:18:32;;;;;;;20.92;10.68;;;;;;;6.37;80.97;100092.56;5004447;28;106209;-70
2021/10/12 05:20:58;;;;;;;17.38;10.48;;;;;;;6.37;81.01;100094.38;5003718;28;105777;-68
2021/10/12 05:23:23;;;;;;;20.50;10.73;;;;;;;6.35;81.18;100098.97;5004139;28;106021;-68
2021/10/12 05:25:49;;;;;;;17.77;10.43;;;;;;;6.34;81.53;100100.81;5004945;28;105968;-69
2021/10/12 05:28:16;;;;;;;20.98;9.88;;;;;;;6.36;81.42;100093.53;5004459;28;106103;-69
2021/10/12 05:30:43;;;;;;;16.17;10.13;;;;;;;6.36;81.09;100098.84;5004679;28;105878;-68
2021/10/12 05:33:18;;;;;;;24.60;11.77;;;;;;;6.36;81.08;100098.84;5004074;28;106398;-67
2021/10/12 05:35:45;;;;;;;20.75;10.05;;;;;;;6.37;81.59;100100.50;5004609;28;105850;-67
2021/10/12 05:38:11;;;;;;;18.48;10.20;;;;;;;6.40;81.81;100108.16;5003729;28;106165;-67
2021/10/12 05:40:37;;;;;;;18.42;10.90;;;;;;;6.44;81.91;100101.59;5003790;28;106102;-67
2021/10/12 05:43:02;;;;;;;16.45;10.73;;;;;;;6.50;81.96;100104.63;5003762;28;105904;-67
2021/10/12 05:45:27;;;;;;;16.30;11.48;;;;;;;6.56;81.91;100104.03;5004580;28;106445;-70
2021/10/12 05:47:53;;;;;;;21.33;11.02;;;;;;;6.68;81.74;100102.88;5003756;28;105817;-70
2021/10/12 05:50:19;;;;;;;20.10;11.00;;;;;;;6.87;82.54;100107.22;5003487;28;106434;-70
2021/10/12 05:52:54;;;;;;;20.60;10.43;;;;;;;7.13;82.64;100105.69;5002485;28;105977;-70
2021/10/12 05:55:35;;;;;;;15.70;9.43;;;;;;;7.38;83.07;100104.94;5002793;28;106361;-68
2021/10/12 05:58:08;;;;;;;19.02;8.93;;;;;;;7.58;82.63;100097.66;5004324;28;105901;-69
2021/10/12 06:00:34;;;;;;;16.15;8.82;;;;;;;7.68;81.52;100099.38;5004034;28;105975;-69
2021/10/12 06:03:00;;;;;;;17.13;8.20;;;;;;;7.72;81.60;100098.09;5004091;28;105861;-69
2021/10/12 06:05:25;;;;;;;15.43;8.02;;;;;;;7.75;81.20;100103.94;4992537;28;105987;-68
2021/10/12 06:07:50;;;;;;;18.02;8.63;;;;;;;7.83;81.27;100103.13;4991466;28;106025;-68
2021/10/12 06:10:16;;;;;;;15.07;7.30;;;;;;;7.95;81.62;100101.06;4990879;28;105855;-71
2021/10/12 06:12:41;;;;;;;11.38;6.68;;;;;;;8.08;81.82;100098.84;4990700;28;105922;-70
2021/10/12 06:15:07;;;;;;;11.80;7.18;;;;;;;8.22;81.52;100110.72;4991133;28;106178;-68
2021/10/12 06:17:32;;;;;;;11.90;6.75;;;;;;;8.36;80.79;100108.47;4989847;28;106392;-68
2021/10/12 06:19:57;;;;;;;17.77;7.30;;;;;;;8.49;80.97;100110.72;4990217;28;109901;-70
2021/10/12 06:22:23;;;;;;;12.75;6.07;;;;;;;8.62;80.74;100109.31;4990313;28;105871;-70
2021/10/12 06:24:48;;;;;;;16.33;6.10;;;;;;;8.71;80.80;100109.34;4991680;28;105660;-70
2021/10/12 06:27:14;;;;;;;10.05;5.63;;;;;;;8.77;80.71;100106.84;4990841;28;106478;-70
2021/10/12 06:29:39;;;;;;;11.60;5.57;;;;;;;8.82;80.58;100106.38;4990780;28;105885;-70
2021/10/12 06:32:05;;;;;;;11.88;4.88;;;;;;;8.81;79.60;100100.22;4990640;28;106282;-71
2021/10/12 06:34:30;;;;;;;10.38;5.20;;;;;;;8.76;79.27;100105.19;4991476;28;105865;-70
2021/10/12 06:36:55;;;;;;;9.85;4.60;;;;;;;8.76;79.42;100094.56;4982598;27;106247;-71
2021/10/12 06:39:21;;;;;;;13.48;4.78;;;;;;;8.79;79.12;100094.25;4948158;28;105942;-70
2021/10/12 06:41:46;;;;;;;7.10;4.53;;;;;;;8.86;79.31;100099.75;4988540;28;106290;-70
2021/10/12 06:44:11;;;;;;;12.18;4.13;;;;;;;8.94;79.34;100093.63;4990478;28;105917;-71
2021/10/12 06:46:37;;;;;;;11.32;4.60;;;;;;;9.01;79.19;100092.00;4990504;28;105871;-71
2021/10/12 06:49:03;;;;;;;10.25;4.97;;;;;;;9.11;79.24;100103.28;4989616;28;106099;-71
2021/10/12 06:51:28;;;;;;;11.57;4.53;;;;;;;9.21;78.92;100097.81;4990044;28;106187;-71
2021/10/12 06:53:53;;;;;;;14.45;4.95;;;;;;;9.37;79.05;100097.03;4988853;28;106149;-71
2021/10/12 06:56:19;;;;;;;8.63;4.70;;;;;;;9.54;78.38;100105.00;4990014;28;106247;-71
2021/10/12 06:58:44;;;;;;;10.25;4.50;;;;;;;9.61;78.36;100098.88;4989854;28;106093;-71
2021/10/12 07:01:10;;;;;;;9.13;4.57;;;;;;;9.61;78.09;100100.72;4989429;28;106654;-71
2021/10/12 07:03:35;;;;;;;8.00;4.30;;;;;;;9.53;77.43;100101.53;4990262;28;105850;-71
2021/10/12 07:06:01;;;;;;;8.38;4.70;;;;;;;9.51;77.28;100098.19;4990210;28;105783;-70
2021/10/12 07:08:26;;;;;;;11.95;5.15;;;;;;;9.58;77.41;100096.56;4989606;28;106321;-70
2021/10/12 07:10:51;;;;;;;9.50;5.00;;;;;;;9.76;77.16;100099.03;4989521;28;105680;-69
2021/10/12 07:13:18;;;;;;;12.32;4.82;;;;;;;10.20;77.74;100096.97;4990231;28;105905;-70
2021/10/12 07:15:43;;;;;;;9.48;4.68;;;;;;;10.76;78.19;100078.34;4988130;28;105859;-71
2021/10/12 07:18:11;;;;;;;9.73;5.15;;;;;;;11.09;77.20;100078.97;4989225;28;106073;-71
2021/10/12 07:20:39;;;;;;;10.15;4.55;;;;;;;11.01;75.20;100087.00;4989481;28;106020;-71
2021/10/12 07:23:04;;;;;;;8.35;4.50;;;;;;;10.92;74.40;100082.72;4990365;28;106320;-70
2021/10/12 07:25:30;;;;;;;9.82;4.25;;;;;;;10.87;74.59;100085.09;4989744;28;106158;-71
2021/10/12 07:27:55;;;;;;;7.93;3.78;;;;;;;10.97;73.96;100088.38;4989430;28;105970;-70
2021/10/12 07:30:20;;;;;;;8.20;4.38;;;;;;;10.95;74.06;100085.06;4989402;28;105993;-70
2021/10/12 07:32:46;;;;;;;12.23;4.38;;;;;;;10.96;73.15;100084.03;4994221;28;106009;-70
2021/10/12 07:35:11;;;;;;;9.40;3.58;;;;;;;11.15;74.13;100086.28;4997264;28;106245;-69
2021/10/12 07:37:40;;;;;;;11.20;4.00;;;;;;;11.45;73.90;100086.38;4999032;28;106358;-70
2021/10/12 07:40:06;;;;;;;8.63;3.83;;;;;;;11.57;72.33;100080.63;4998788;28;106205;-68
2021/10/12 07:42:31;;;;;;;6.25;3.63;;;;;;;11.45;71.46;100085.56;4998457;28;106033;-69
2021/10/12 07:44:57;;;;;;;11.50;3.88;;;;;;;11.54;72.83;100084.50;4989691;28;106415;-69
2021/10/12 07:47:22;;;;;;;14.30;4.20;;;;;;;12.07;73.75;100089.88;4988072;28;106566;-70
2021/10/12 07:49:48;;;;;;;16.40;5.22;;;;;;;12.82;73.76;100085.34;4988103;28;106112;-71
2021/10/12 07:52:14;;;;;;;11.57;5.43;;;;;;;13.02;72.06;100084.72;4987385;28;106152;-70
2021/10/12 07:54:47;;;;;;;10.27;3.25;;;;;;;12.90;69.93;100075.53;4988692;28;106010;-70
2021/10/12 07:57:17;;;;;;;10.27;3.53;;;;;;;12.49;68.36;100080.41;4947958;27;106194;-71
2021/10/12 07:59:43;;;;;;;8.95;3.55;;;;;;;12.33;69.47;100081.41;4968618;28;106219;-73
2021/10/12 08:02:12;;;;;;;8.20;3.50;;;;;;;12.31;69.01;100080.75;4969916;28;107200;-71
2021/10/12 08:04:41;;;;;;;10.00;3.42;;;;;;;12.45;69.53;100079.13;4966115;28;106180;-72
2021/10/12 08:07:07;;;;;;;11.82;3.80;;;;;;;12.61;68.27;100069.25;4968722;28;106019;-72
2021/10/12 08:09:34;;;;;;;11.43;3.33;;;;;;;12.78;68.21;100065.34;4968461;28;106397;-72
2021/10/12 08:12:00;;;;;;;13.00;3.97;;;;;;;14.17;68.53;100071.31;4969067;28;105916;-72
2021/10/12 08:14:26;;;;;;;9.77;3.50;;;;;;;15.55;67.31;100057.78;4967723;28;106279;-72
2021/10/12 08:16:52;;;;;;;7.95;3.03;;;;;;;15.27;63.17;100055.28;4968193;28;106345;-73
2021/10/12 08:19:17;;;;;;;5.78;2.63;;;;;;;16.24;64.48;100060.22;4967977;28;106456;-72
2021/10/12 08:21:43;;;;;;;8.77;3.85;;;;;;;16.52;61.06;100042.94;4969286;28;106235;-73
2021/10/12 08:24:08;;;;;;;4.47;2.80;;;;;;;15.99;61.02;100054.66;4968530;28;106206;-76
2021/10/12 08:26:34;;;;;;;12.68;3.42;;;;;;;15.82;61.47;100051.59;4968571;28;106343;-70
2021/10/12 08:28:59;;;;;;;8.90;3.63;;;;;;;16.82;61.67;100043.22;4968418;28;106064;-70
2021/10/12 08:31:25;;;;;;;7.70;2.90;;;;;;;17.02;58.39;100047.72;4969394;28;105976;-71
2021/10/12 08:33:50;;;;;;;5.20;2.47;;;;;;;16.01;56.92;100048.06;4968589;28;106047;-69
2021/10/12 08:36:16;;;;;;;10.88;2.90;;;;;;;15.18;57.83;100043.09;4967832;28;105956;-69
2021/10/12 08:38:43;;;;;;;4.63;2.38;;;;;;;14.62;58.63;100044.97;4968062;28;106029;-70
2021/10/12 08:41:09;;;;;;;3.97;2.53;;;;;;;14.50;59.27;100039.34;4968669;28;106171;-70
2021/10/12 08:43:36;;;;;;;8.60;2.92;;;;;;;14.52;59.19;100031.94;4964925;28;106237;-71
2021/10/12 08:46:03;;;;;;;5.57;2.78;;;;;;;18.82;62.48;100020.91;4966848;28;106730;-70
2021/10/12 08:48:32;;;;;;;8.95;2.60;;;;;;;19.75;53.19;100023.19;4966445;28;106083;-69
2021/10/12 08:51:01;;;;;;;6.82;2.67;;;;;;;18.75;50.63;100017.44;4967167;28;106050;-69
2021/10/12 08:53:29;;;;;;;7.05;2.28;;;;;;;19.28;49.97;100019.38;4966415;28;106700;-69
2021/10/12 08:55:55;;;;;;;6.10;2.63;;;;;;;19.54;50.87;100003.81;4965718;28;106640;-71
2021/10/12 08:58:20;;;;;;;6.32;2.13;;;;;;;21.68;49.99;100012.06;4965956;28;105961;-71
2021/10/12 09:00:45;;;;;;;5.38;2.25;;;;;;;22.08;46.16;100008.25;4966752;28;106141;-70
2021/10/12 09:03:19;;;;;;;5.82;2.45;;;;;;;20.25;44.23;100009.19;4965912;28;106206;-70
2021/10/12 09:05:53;;;;;;;7.22;2.88;;;;;;;18.35;45.68;100010.69;4960560;28;108053;-70
2021/10/12 09:08:29;;;;;;;8.63;2.90;;;;;;;17.09;46.91;100010.81;4962640;28;106605;-70
2021/10/12 09:10:55;;;;;;;7.65;3.10;;;;;;;16.52;47.56;100011.50;4966385;28;106019;-68
2021/10/12 09:13:21;;;;;;;6.93;3.13;;;;;;;20.58;51.21;99996.03;4965535;28;106221;-68
2021/10/12 09:16:06;;;;;;;9.07;3.15;;;;;;;25.15;45.01;99988.13;4965579;28;106044;-69
2021/10/12 09:18:56;;;;;;;5.80;2.80;;;;;;;28.22;36.58;99987.72;4964577;28;106038;-71
2021/10/12 09:21:25;;;;;;;4.22;2.00;;;;;;;28.32;32.92;99990.34;4954862;28;106098;-70
2021/10/12 09:24:01;;;;;;;5.57;2.10;;;;;;;29.00;31.47;99977.28;4965667;28;106258;-70
2021/10/12 09:26:28;;;;;;;5.28;1.88;;;;;;;26.21;29.76;99983.06;4964477;28;106086;-69
2021/10/12 09:29:07;;;;;;;4.13;1.90;;;;;;;26.51;31.93;99979.34;4965510;28;106080;-69
2021/10/12 09:31:44;;;;;;;4.82;2.22;;;;;;;29.16;28.41;99969.63;4965984;28;106024;-69
2021/10/12 09:34:11;;;;;;;4.95;2.13;;;;;;;30.95;26.47;99970.97;4965576;28;106055;-69
2021/10/12 09:36:41;;;;;;;4.68;1.88;;;;;;;30.21;24.45;99976.47;4965722;28;105973;-69
2021/10/12 09:39:14;;;;;;;7.22;2.13;;;;;;;29.91;25.29;99964.22;4966325;28;106220;-69
2021/10/12 09:41:40;;;;;;;5.32;1.80;;;;;;;28.77;24.46;99956.28;4966922;28;106077;-70
2021/10/12 09:44:11;;;;;;;5.35;1.85;;;;;;;26.32;26.62;99957.31;4968668;28;106244;-69
2021/10/12 09:46:38;;;;;;;4.43;1.60;;;;;;;23.80;28.52;99945.22;4968555;28;106656;-69
2021/10/12 09:49:13;;;;;;;5.47;1.92;;;;;;;21.70;31.32;99946.75;4968577;28;106575;-70
2021/10/12 09:52:01;;;;;;;9.80;2.33;;;;;;;20.03;33.75;99948.69;4969766;28;105923;-68
2021/10/12 09:54:56;;;;;;;9.13;2.30;;;;;;;18.90;35.18;99949.59;4968990;28;106194;-68
2021/10/12 09:57:24;;;;;;;7.78;2.08;;;;;;;18.17;36.40;99941.44;4966559;28;106740;-70
2021/10/12 09:59:50;;;;;;;10.60;3.58;;;;;;;17.58;37.78;99939.16;4968538;28;106505;-70
2021/10/12 10:02:17;;;;;;;6.15;1.90;;;;;;;17.16;38.46;99938.91;4969450;28;105952;-69
2021/10/12 10:04:43;;;;;;;5.82;1.90;;;;;;;16.66;39.17;99930.75;4969175;28;106214;-70
2021/10/12 10:07:20;;;;;;;5.97;1.45;;;;;;;16.10;39.97;99921.53;4968577;28;105958;-70
2021/10/12 10:09:47;;;;;;;6.07;1.58;;;;;;;15.84;40.92;99918.75;4940406;27;106891;-69
2021/10/12 10:12:13;;;;;;;7.65;2.00;;;;;;;15.69;40.93;99910.06;4930815;28;106162;-70
2021/10/12 10:14:39;;;;;;;6.03;1.73;;;;;;;15.29;41.64;99902.91;4929943;28;106246;-70
2021/10/12 10:17:05;;;;;;;6.20;1.60;;;;;;;14.85;41.97;99907.88;4929859;28;106149;-69
2021/10/12 10:19:42;;;;;;;5.07;1.77;;;;;;;14.48;43.20;99912.75;4929392;28;105997;-71
2021/10/12 10:22:08;;;;;;;4.53;1.20;;;;;;;14.22;44.02;99898.25;4943721;28;105902;-69
2021/10/12 10:24:33;;;;;;;3.83;1.30;;;;;;;13.93;44.90;99890.50;4949469;28;106384;-69
2021/10/12 10:27:00;;;;;;;4.03;1.60;;;;;;;13.99;45.63;99895.06;4949252;28;105960;-69
2021/10/12 10:29:38;;;;;;;6.38;2.05;;;;;;;14.29;46.04;99894.78;4949246;28;106594;-71
2021/10/12 10:32:22;;;;;;;7.40;2.25;;;;;;;14.92;45.84;99883.75;4948909;28;106132;-71
2021/10/12 10:35:04;;;;;;;4.82;1.50;;;;;;;15.78;45.52;99876.59;4949510;28;106242;-71
2021/10/12 10:37:31;;;;;;;7.43;2.65;;;;;;;16.55;44.44;99871.28;4948809;28;106044;-71
2021/10/12 10:40:03;;;;;;;4.75;2.20;;;;;;;17.47;43.67;99867.19;4945373;28;106571;-67
2021/10/12 10:42:41;;;;;;;5.60;2.17;;;;;;;18.77;43.16;99864.25;4945907;28;106180;-67
2021/10/12 10:45:08;;;;;;;6.07;1.33;;;;;;;19.31;40.00;99857.97;4948938;28;106095;-68
2021/10/12 10:47:42;;;;;;;5.10;1.30;;;;;;;17.75;38.79;99849.66;4948549;28;106117;-67
2021/10/12 10:50:26;;;;;;;2.75;1.13;;;;;;;16.73;41.08;99853.53;4948618;28;106151;-67
2021/10/12 10:52:53;;;;;;;5.47;1.30;;;;;;;16.02;41.84;99848.22;4949309;28;106361;-67
2021/10/12 10:55:22;;;;;;;6.97;1.35;;;;;;;15.35;42.76;99850.25;4948600;28;105990;-67
2021/10/12 10:58:04;;;;;;;4.68;1.48;;;;;;;14.79;43.17;99865.81;4945019;28;106848;-68
2021/10/12 11:00:38;;;;;;;3.05;1.50;;;;;;;14.04;44.59;99858.63;4935070;28;106515;-67
2021/10/12 11:03:04;;;;;;;8.43;1.60;;;;;;;13.54;45.77;99864.19;4930757;28;106007;-68
2021/10/12 11:05:42;;;;;;;4.32;1.23;;;;;;;13.20;47.08;99867.66;4928868;28;106559;-71
2021/10/12 11:08:13;;;;;;;6.78;1.38;;;;;;;12.84;47.89;99855.25;4927782;28;106888;-72
2021/10/12 11:10:40;;;;;;;1.98;1.10;;;;;;;12.57;48.97;99864.88;4929114;28;106035;-72
2021/10/12 11:13:06;;;;;;;3.38;1.60;;;;;;;12.43;49.58;99858.59;4930990;28;106012;-72
2021/10/12 11:15:31;;;;;;;5.00;1.67;;;;;;;12.52;50.23;99844.91;4930522;28;106392;-71
2021/10/12 11:18:07;;;;;;;2.22;1.42;;;;;;;13.63;51.00;99831.91;4930455;28;105931;-70
2021/10/12 11:20:40;;;;;;;4.30;1.45;;;;;;;14.75;49.48;99835.09;4937032;28;105897;-71
2021/10/12 11:23:05;;;;;;;6.15;1.60;;;;;;;16.36;48.37;99823.81;4950273;28;105999;-72
2021/10/12 11:25:31;;;;;;;7.95;1.70;;;;;;;18.45;47.12;99813.28;4947692;28;106110;-70
2021/10/12 11:28:06;;;;;;;3.17;1.23;;;;;;;19.60;42.76;99811.03;4947091;28;106386;-72
2021/10/12 11:30:35;;;;;;;4.90;1.50;;;;;;;19.85;41.11;99809.13;4947119;28;106484;-73
2021/10/12 11:33:01;;;;;;;5.47;1.65;;;;;;;19.54;40.65;99801.19;4948644;28;106536;-71
2021/10/12 11:35:39;;;;;;;4.57;1.33;;;;;;;18.89;40.74;99807.59;4947699;28;106493;-72
2021/10/12 11:38:07;;;;;;;4.60;1.30;;;;;;;17.92;41.07;99799.53;4947327;28;106260;-70
2021/10/12 11:40:34;;;;;;;6.10;1.70;;;;;;;17.15;41.72;99789.22;4948628;28;106233;-72
2021/10/12 11:43:01;;;;;;;4.72;1.50;;;;;;;16.65;43.01;99786.56;4950405;28;106820;-68
2021/10/12 11:45:28;;;;;;;5.35;1.50;;;;;;;15.94;43.35;99778.63;4949766;28;106175;-68
2021/10/12 11:47:53;;;;;;;4.18;1.27;;;;;;;15.21;44.96;99791.28;4949382;28;106651;-69
2021/10/12 11:50:19;;;;;;;2.08;0.77;;;;;;;14.36;45.77;99791.09;4949382;28;105972;-69
2021/10/12 11:52:52;;;;;;;1.83;1.10;;;;;;;13.79;47.08;99826.22;4949368;28;106175;-70
2021/10/12 11:55:22;;;;;;;4.10;1.40;;;;;;;13.46;48.01;99832.22;4949135;28;106284;-70
2021/10/12 11:57:48;;;;;;;5.28;1.20;;;;;;;13.10;48.46;99859.16;4948787;28;107693;-71
2021/10/12 12:00:14;;;;;;;4.10;0.88;;;;;;;12.56;49.20;99842.69;4949213;28;105960;-69
2021/10/12 12:02:44;;;;;;;1.73;0.82;;;;;;;12.06;50.02;99837.25;4948956;28;106008;-71
2021/10/12 12:05:10;;;;;;;2.90;0.82;;;;;;;11.78;51.35;99823.75;4949355;28;106448;-69
2021/10/12 12:07:40;;;;;;;2.50;1.13;;;;;;;11.58;52.20;99824.34;4948917;28;106796;-71
2021/10/12 12:10:08;;;;;;;3.58;1.05;;;;;;;11.30;52.48;99819.69;4946752;28;106258;-69
2021/10/12 12:12:35;;;;;;;3.40;1.10;;;;;;;11.05;53.32;99813.75;4949583;28;106094;-69
2021/10/12 12:15:03;;;;;;;3.95;1.27;;;;;;;10.90;53.91;99815.59;4948764;28;106777;-66
2021/10/12 12:17:28;;;;;;;2.53;1.40;;;;;;;10.70;54.88;99816.09;4948383;28;105839;-69
2021/10/12 12:19:56;;;;;;;3.47;1.52;;;;;;;10.49;55.18;99819.44;4948383;28;106386;-68
2021/10/12 12:22:30;;;;;;;3.90;1.60;;;;;;;10.30;55.83;99815.38;4949146;28;106200;-68
2021/10/12 12:25:07;;;;;;;4.85;1.65;;;;;;;10.10;56.68;99815.88;4936431;28;106248;-70
2021/10/12 12:27:50;;;;;;;6.03;2.60;;;;;;;9.95;57.23;99812.28;4929059;28;106333;-69
2021/10/12 12:30:15;;;;;;;4.00;1.90;;;;;;;9.80;57.67;99807.72;4938077;28;106066;-68
2021/10/12 12:32:55;;;;;;;5.75;2.03;;;;;;;9.67;58.11;99802.13;4941004;28;105943;-69
2021/10/12 12:35:20;;;;;;;5.72;2.30;;;;;;;9.56;58.87;99802.53;4930838;28;105924;-69
2021/10/12 12:37:59;;;;;;;7.07;2.97;;;;;;;9.50;59.50;99804.06;4937989;28;105992;-69
2021/10/12 12:40:26;;;;;;;4.18;2.55;;;;;;;9.44;60.23;99802.88;4937887;28;105868;-69
2021/10/12 12:42:52;;;;;;;3.90;2.55;;;;;;;9.35;60.18;99795.13;4937994;28;106070;-69
2021/10/12 12:45:22;;;;;;;4.57;2.97;;;;;;;9.24;60.88;99796.31;4939748;28;106386;-68
2021/10/12 12:48:03;;;;;;;4.27;2.57;;;;;;;9.16;61.67;99797.19;4935753;28;106404;-68
2021/10/12 12:50:34;;;;;;;6.70;2.90;;;;;;;9.13;61.65;99792.19;4937492;28;106283;-68
2021/10/12 12:53:02;;;;;;;5.95;2.80;;;;;;;9.10;61.88;99801.34;4947485;28;106169;-68
2021/10/12 12:55:41;;;;;;;4.78;3.20;;;;;;;9.05;62.43;99797.53;4946970;28;106247;-69
2021/10/12 12:58:07;;;;;;;4.68;3.13;;;;;;;9.09;63.23;99796.19;4946652;28;106507;-68
2021/10/12 13:00:39;;;;;;;6.72;3.33;;;;;;;9.12;63.30;99798.53;4946998;28;105992;-68
2021/10/12 13:03:05;;;;;;;6.00;3.00;;;;;;;9.10;63.34;99793.38;4947364;28;106482;-68
2021/10/12 13:53:52;;;;;;;9.10;3.90;;;;;;;9.88;62.93;99750.13;5009173;28;106132;-66
2021/10/12 13:56:17;;;;;;;8.93;4.63;;;;;;;9.85;63.62;99755.81;5002239;28;106240;-66
2021/10/12 13:58:42;;;;;;;5.93;3.40;;;;;;;9.82;64.18;99757.81;5012246;28;106938;-66
2021/10/12 14:01:08;;;;;;;7.18;3.38;;;;;;;9.77;64.40;99757.53;5019349;28;115206;-66
2021/10/12 14:03:36;;;;;;;4.82;2.97;;;;;;;9.74;64.71;99760.53;5007719;27;106006;-65
2021/10/12 14:06:01;;;;;;;4.32;2.53;;;;;;;9.73;65.31;99760.69;5020700;27;106066;-66
2021/10/12 14:08:26;;;;;;;4.30;2.08;;;;;;;9.74;65.73;99760.53;5012245;28;106111;-64
2021/10/12 14:10:52;;;;;;;4.85;1.80;;;;;;;9.74;65.89;99752.53;5013032;27;106120;-67
2021/10/12 14:13:17;;;;;;;4.78;2.00;;;;;;;9.70;65.35;99761.88;5019232;28;106440;-68
2021/10/12 14:15:42;;;;;;;5.80;2.60;;;;;;;9.67;65.80;99764.09;5008606;27;106311;-66
2021/10/12 14:18:08;;;;;;;5.22;2.63;;;;;;;9.68;65.68;99763.91;5019526;27;106061;-67
2021/10/12 14:20:33;;;;;;;5.10;2.67;;;;;;;9.68;65.80;99771.03;5012908;28;107539;-67
2021/10/12 14:22:58;;;;;;;7.10;2.60;;;;;;;9.64;66.09;99757.28;5012126;27;106008;-67
2021/10/12 14:25:24;;;;;;;3.65;2.38;;;;;;;9.67;66.27;99753.44;5020770;28;106299;-67
2021/10/12 14:27:52;;;;;;;4.10;2.80;;;;;;;10.23;67.10;99745.25;5007815;28;106194;-67
2021/10/12 14:30:18;;;;;;;4.35;3.03;;;;;;;11.34;67.00;99753.44;5017425;27;106287;-67
2021/10/12 14:32:44;;;;;;;5.15;2.53;;;;;;;11.40;64.99;99736.72;5014428;28;106180;-67
2021/10/12 14:35:09;;;;;;;5.25;2.67;;;;;;;11.13;64.24;99733.69;5011292;28;106024;-67
2021/10/12 14:37:36;;;;;;;4.05;2.30;;;;;;;10.84;63.86;99731.88;5020652;28;106549;-67
2021/10/12 14:40:06;;;;;;;7.18;3.10;;;;;;;10.58;64.43;99732.28;5006682;28;106912;-68
2021/10/12 14:42:33;;;;;;;6.97;3.30;;;;;;;10.34;64.35;99736.81;5015316;28;106020;-65
2021/10/12 14:44:59;;;;;;;4.78;2.90;;;;;;;10.14;65.00;99733.81;5016826;28;106499;-67
2021/10/12 14:47:24;;;;;;;5.65;2.67;;;;;;;9.98;65.09;99742.75;5008096;28;106168;-68
2021/10/12 14:49:50;;;;;;;4.50;2.22;;;;;;;9.83;65.32;99745.34;5020180;28;106845;-65
2021/10/12 14:52:15;;;;;;;4.15;2.20;;;;;;;9.71;65.52;99744.91;5009764;28;106274;-66
2021/10/12 14:54:40;;;;;;;4.85;2.38;;;;;;;9.60;65.56;99745.31;5014909;27;106433;-66
2021/10/12 14:57:06;;;;;;;2.63;1.48;;;;;;;9.51;65.75;99747.19;5017163;28;106133;-67
2021/10/12 14:59:32;;;;;;;4.00;2.15;;;;;;;9.47;66.43;99740.56;5007283;27;107921;-66
2021/10/12 15:01:58;;;;;;;4.25;2.28;;;;;;;9.38;66.01;99737.13;5019647;27;105938;-66
2021/10/12 15:04:23;;;;;;;6.43;2.30;;;;;;;9.27;65.90;99741.00;5003360;28;106011;-66
2021/10/12 15:06:52;;;;;;;4.35;2.72;;;;;;;9.18;66.46;99741.22;4999869;28;105827;-66
2021/10/12 15:09:18;;;;;;;5.63;2.60;;;;;;;9.10;66.68;99745.56;5004703;28;106758;-64
2021/10/12 15:11:44;;;;;;;4.50;2.70;;;;;;;9.06;66.86;99738.09;4993521;28;105939;-66
2021/10/12 15:14:09;;;;;;;6.30;2.83;;;;;;;9.00;67.08;99738.78;5005663;28;106028;-66
2021/10/12 15:16:34;;;;;;;5.97;4.07;;;;;;;8.91;67.41;99730.84;4999922;28;106284;-67
2021/10/12 15:19:01;;;;;;;5.65;3.42;;;;;;;8.86;67.67;99732.31;5010036;28;106195;-67
2021/10/12 15:21:27;;;;;;;5.95;4.20;;;;;;;8.81;67.11;99731.00;4993938;28;106261;-69
2021/10/12 15:23:52;;;;;;;5.07;3.28;;;;;;;8.80;68.02;99733.84;5007750;28;105903;-68
2021/10/12 15:26:18;;;;;;;5.75;2.97;;;;;;;8.76;67.82;99738.69;4997234;28;106257;-67
2021/10/12 15:28:43;;;;;;;6.32;3.75;;;;;;;8.69;67.52;99742.16;5000306;28;106849;-67
2021/10/12 15:31:08;;;;;;;6.07;3.22;;;;;;;8.65;68.33;99746.97;5003696;28;106011;-66
2021/10/12 15:33:33;;;;;;;5.75;2.58;;;;;;;8.59;69.01;99740.50;4994206;28;105794;-66
2021/10/12 15:35:59;;;;;;;5.03;2.70;;;;;;;8.53;68.62;99748.31;5006439;28;106115;-67
2021/10/12 15:38:24;;;;;;;5.05;2.75;;;;;;;8.40;68.71;99748.81;4997521;28;106504;-66
2021/10/12 15:40:49;;;;;;;6.13;2.78;;;;;;;8.33;69.21;99742.53;4998817;28;106135;-67
2021/10/12 15:43:15;;;;;;;6.07;3.17;;;;;;;8.25;69.18;99741.50;4990403;28;105836;-67
2021/10/12 15:45:40;;;;;;;6.05;3.00;;;;;;;8.18;69.18;99729.09;5004592;28;106192;-65
2021/10/12 15:48:06;;;;;;;5.63;2.92;;;;;;;8.09;69.17;99736.19;4994158;28;106624;-67
2021/10/12 15:50:31;;;;;;;4.93;2.88;;;;;;;8.01;69.61;99731.75;5001021;28;106499;-66
2021/10/12 15:52:56;;;;;;;7.20;3.20;;;;;;;7.95;69.73;99735.03;5001605;28;106111;-66
2021/10/12 15:55:22;;;;;;;7.65;3.65;;;;;;;7.91;69.95;99728.41;4994315;28;106162;-66
2021/10/12 15:57:47;;;;;;;5.50;2.70;;;;;;;7.90;70.89;99729.38;5006052;28;105953;-66
2021/10/12 16:00:13;;;;;;;5.68;3.50;;;;;;;7.84;70.51;99738.84;4995342;28;106426;-66
2021/10/12 16:02:39;;;;;;;6.70;3.80;;;;;;;7.82;71.04;99745.28;5000876;28;106011;-68
2021/10/12 16:05:05;;;;;;;10.85;4.80;;;;;;;7.84;70.79;99744.13;5002874;28;106228;-67
2021/10/12 16:07:30;;;;;;;8.70;4.95;;;;;;;7.89;70.69;99746.31;4994226;28;106141;-67
2021/10/12 16:09:56;;;;;;;8.23;4.22;;;;;;;7.92;71.69;99751.28;5008906;28;106734;-66
2021/10/12 16:12:21;;;;;;;9.95;4.63;;;;;;;7.91;70.79;99755.78;5009949;28;105998;-67
2021/10/12 16:23:01;;;;;;;5.85;3.40;;;;;;;7.77;71.12;99743.97;4986983;28;106097;-67
2021/10/12 16:25:26;;;;;;;8.18;3.85;;;;;;;7.68;71.38;99755.56;5004170;28;106022;-67
2021/10/12 16:27:52;;;;;;;7.93;3.35;;;;;;;7.59;70.92;99751.22;5008081;28;106037;-66
2021/10/12 16:30:20;;;;;;;4.65;2.70;;;;;;;7.52;71.85;99744.88;5007616;28;108569;-66
2021/10/12 16:32:46;;;;;;;6.78;3.25;;;;;;;7.41;71.56;99746.03;4991780;28;106012;-67
2021/10/12 16:35:13;;;;;;;4.80;3.00;;;;;;;7.29;71.88;99756.09;5005621;28;106551;-67
2021/10/12 16:37:38;;;;;;;5.35;2.70;;;;;;;7.17;71.67;99754.72;4993083;28;105991;-66
2021/10/12 16:40:04;;;;;;;6.85;2.90;;;;;;;7.05;71.84;99757.66;4988649;28;106481;-66
2021/10/12 16:42:29;;;;;;;7.50;4.13;;;;;;;6.96;72.13;99755.94;4988519;28;106108;-65
2021/10/12 16:44:55;;;;;;;6.80;3.65;;;;;;;6.88;71.97;99759.34;4990713;28;106153;-66
2021/10/12 16:47:20;;;;;;;6.00;3.80;;;;;;;6.82;72.40;99764.44;5007553;28;106594;-67
2021/10/12 16:49:45;;;;;;;6.70;4.18;;;;;;;6.74;72.72;99758.13;5006948;28;106057;-67
2021/10/12 16:52:12;;;;;;;6.43;3.92;;;;;;;6.66;73.21;99760.72;5007585;28;106361;-67
2021/10/12 16:54:37;;;;;;;9.68;4.25;;;;;;;6.61;73.37;99773.59;4997212;28;107120;-67
2021/10/12 16:57:03;;;;;;;5.60;3.70;;;;;;;6.54;73.49;99770.72;4986873;28;106673;-66
2021/10/12 16:59:31;;;;;;;6.05;4.15;;;;;;;6.50;73.39;99765.91;4987171;28;106044;-66
2021/10/12 17:01:57;;;;;;;7.47;3.88;;;;;;;6.42;73.40;99764.88;4988040;28;105933;-66
2021/10/12 17:04:24;;;;;;;8.20;5.05;;;;;;;6.36;73.73;99765.47;4987828;28;106818;-66
2021/10/12 17:06:50;;;;;;;8.15;5.60;;;;;;;6.29;73.91;99761.78;4987399;28;106377;-67
2021/10/12 17:09:17;;;;;;;9.10;5.50;;;;;;;6.24;73.70;99759.56;4987562;28;106051;-67
2021/10/12 17:11:44;;;;;;;10.70;5.30;;;;;;;6.20;73.92;99763.50;4988126;28;106562;-66
2021/10/12 17:14:11;;;;;;;8.20;5.75;;;;;;;6.17;74.15;99765.66;4986140;28;106379;-66
2021/10/12 17:16:38;;;;;;;9.30;5.65;;;;;;;6.12;74.46;99768.72;4986592;28;106269;-67